sensor_id;sensor_type;location;lat;lon;timestamp;temperature;humidity
72468;SHT30;60626;43.582;1.470;2022-08-21T00:02:22;26.75;51.99
72468;SHT30;60626;43.582;1.470;2022-08-21T00:04:50;26.72;52.29
72468;SHT30;60626;43.582;1.470;2022-08-21T00:07:23;26.74;52.02
72468;SHT30;60626;43.582;1.470;2022-08-21T00:09:51;26.72;52.25
72468;SHT30;60626;43.582;1.470;2022-08-21T00:12:18;26.74;52.22
72468;SHT30;60626;43.582;1.470;2022-08-21T00:14:45;26.71;52.13
72468;SHT30;60626;43.582;1.470;2022-08-21T00:17:12;26.69;51.89
72468;SHT30;60626;43.582;1.470;2022-08-21T00:19:39;26.65;52.33
72468;SHT30;60626;43.582;1.470;2022-08-21T00:22:05;26.58;52.25
72468;SHT30;60626;43.582;1.470;2022-08-21T00:24:32;26.58;52.43
72468;SHT30;60626;43.582;1.470;2022-08-21T00:26:59;26.58;52.34
72468;SHT30;60626;43.582;1.470;2022-08-21T00:29:25;26.60;52.22
72468;SHT30;60626;43.582;1.470;2022-08-21T00:31:53;26.57;52.63
72468;SHT30;60626;43.582;1.470;2022-08-21T00:34:19;26.55;52.72
72468;SHT30;60626;43.582;1.470;2022-08-21T00:36:46;26.57;52.58
72468;SHT30;60626;43.582;1.470;2022-08-21T00:39:13;26.57;52.92
72468;SHT30;60626;43.582;1.470;2022-08-21T00:41:41;26.51;53.01
72468;SHT30;60626;43.582;1.470;2022-08-21T00:44:11;26.54;53.07
72468;SHT30;60626;43.582;1.470;2022-08-21T00:46:40;26.57;53.15
72468;SHT30;60626;43.582;1.470;2022-08-21T00:49:08;26.55;53.04
72468;SHT30;60626;43.582;1.470;2022-08-21T00:51:43;26.57;53.18
72468;SHT30;60626;43.582;1.470;2022-08-21T00:54:12;26.57;53.15
72468;SHT30;60626;43.582;1.470;2022-08-21T00:56:46;26.58;53.48
72468;SHT30;60626;43.582;1.470;2022-08-21T00:59:16;26.57;53.22
72468;SHT30;60626;43.582;1.470;2022-08-21T01:01:44;26.55;53.20
72468;SHT30;60626;43.582;1.470;2022-08-21T01:04:11;26.51;53.07
72468;SHT30;60626;43.582;1.470;2022-08-21T01:06:38;26.50;53.41
72468;SHT30;60626;43.582;1.470;2022-08-21T01:09:05;26.50;53.54
72468;SHT30;60626;43.582;1.470;2022-08-21T01:11:32;26.48;53.55
72468;SHT30;60626;43.582;1.470;2022-08-21T01:13:58;26.48;53.49
72468;SHT30;60626;43.582;1.470;2022-08-21T01:16:25;26.47;53.46
72468;SHT30;60626;43.582;1.470;2022-08-21T01:18:52;26.44;53.44
72468;SHT30;60626;43.582;1.470;2022-08-21T01:21:21;26.41;53.46
72468;SHT30;60626;43.582;1.470;2022-08-21T01:23:55;26.39;53.58
72468;SHT30;60626;43.582;1.470;2022-08-21T01:26:27;26.39;53.27
72468;SHT30;60626;43.582;1.470;2022-08-21T01:31:51;26.33;53.70
72468;SHT30;60626;43.582;1.470;2022-08-21T01:34:18;26.27;53.90
72468;SHT30;60626;43.582;1.470;2022-08-21T01:36:45;26.26;53.84
72468;SHT30;60626;43.582;1.470;2022-08-21T01:39:13;26.26;53.81
72468;SHT30;60626;43.582;1.470;2022-08-21T01:41:41;26.26;54.03
72468;SHT30;60626;43.582;1.470;2022-08-21T01:44:08;26.26;53.92
72468;SHT30;60626;43.582;1.470;2022-08-21T01:46:35;26.20;54.10
72468;SHT30;60626;43.582;1.470;2022-08-21T01:49:03;26.20;54.18
72468;SHT30;60626;43.582;1.470;2022-08-21T01:51:29;26.19;54.30
72468;SHT30;60626;43.582;1.470;2022-08-21T01:53:56;26.19;54.48
72468;SHT30;60626;43.582;1.470;2022-08-21T01:56:24;26.17;54.73
72468;SHT30;60626;43.582;1.470;2022-08-21T01:58:52;26.17;54.79
72468;SHT30;60626;43.582;1.470;2022-08-21T02:01:19;26.19;54.99
72468;SHT30;60626;43.582;1.470;2022-08-21T02:03:45;26.17;54.95
72468;SHT30;60626;43.582;1.470;2022-08-21T02:06:14;26.13;54.80
72468;SHT30;60626;43.582;1.470;2022-08-21T02:08:45;26.09;54.81
72468;SHT30;60626;43.582;1.470;2022-08-21T02:11:12;26.07;55.22
72468;SHT30;60626;43.582;1.470;2022-08-21T02:13:39;26.10;55.17
72468;SHT30;60626;43.582;1.470;2022-08-21T02:16:05;26.07;55.06
72468;SHT30;60626;43.582;1.470;2022-08-21T02:18:34;26.09;55.07
72468;SHT30;60626;43.582;1.470;2022-08-21T02:21:01;26.06;55.24
72468;SHT30;60626;43.582;1.470;2022-08-21T02:23:28;26.06;55.31
72468;SHT30;60626;43.582;1.470;2022-08-21T02:25:58;26.05;55.55
72468;SHT30;60626;43.582;1.470;2022-08-21T02:28:26;26.02;55.46
72468;SHT30;60626;43.582;1.470;2022-08-21T02:30:54;26.02;55.46
72468;SHT30;60626;43.582;1.470;2022-08-21T02:33:22;25.99;55.48
72468;SHT30;60626;43.582;1.470;2022-08-21T02:35:49;26.00;55.53
72468;SHT30;60626;43.582;1.470;2022-08-21T02:38:20;25.95;55.75
72468;SHT30;60626;43.582;1.470;2022-08-21T02:40:49;25.92;55.74
72468;SHT30;60626;43.582;1.470;2022-08-21T02:43:18;25.95;55.80
72468;SHT30;60626;43.582;1.470;2022-08-21T02:45:46;25.92;56.03
72468;SHT30;60626;43.582;1.470;2022-08-21T02:48:17;25.90;56.06
72468;SHT30;60626;43.582;1.470;2022-08-21T02:50:51;25.90;56.01
72468;SHT30;60626;43.582;1.470;2022-08-21T02:53:19;25.86;56.08
72468;SHT30;60626;43.582;1.470;2022-08-21T02:55:48;25.86;56.26
72468;SHT30;60626;43.582;1.470;2022-08-21T02:58:18;25.84;56.38
72468;SHT30;60626;43.582;1.470;2022-08-21T03:00:45;25.79;56.44
72468;SHT30;60626;43.582;1.470;2022-08-21T03:03:12;25.79;56.45
72468;SHT30;60626;43.582;1.470;2022-08-21T03:05:42;25.81;56.44
72468;SHT30;60626;43.582;1.470;2022-08-21T03:08:12;25.76;56.56
72468;SHT30;60626;43.582;1.470;2022-08-21T03:10:42;25.76;56.60
72468;SHT30;60626;43.582;1.470;2022-08-21T03:13:10;25.76;56.60
72468;SHT30;60626;43.582;1.470;2022-08-21T03:15:37;25.74;56.54
72468;SHT30;60626;43.582;1.470;2022-08-21T03:18:04;25.75;56.48
72468;SHT30;60626;43.582;1.470;2022-08-21T03:20:32;25.75;56.51
72468;SHT30;60626;43.582;1.470;2022-08-21T03:23:00;25.74;56.37
72468;SHT30;60626;43.582;1.470;2022-08-21T03:25:28;25.71;56.18
72468;SHT30;60626;43.582;1.470;2022-08-21T03:28:20;25.71;56.28
72468;SHT30;60626;43.582;1.470;2022-08-21T03:30:49;25.68;56.17
72468;SHT30;60626;43.582;1.470;2022-08-21T03:33:18;25.67;56.20
72468;SHT30;60626;43.582;1.470;2022-08-21T03:35:54;25.67;56.29
72468;SHT30;60626;43.582;1.470;2022-08-21T03:38:22;25.67;56.34
72468;SHT30;60626;43.582;1.470;2022-08-21T03:40:52;25.65;56.24
72468;SHT30;60626;43.582;1.470;2022-08-21T03:43:19;25.67;56.01
72468;SHT30;60626;43.582;1.470;2022-08-21T03:45:46;25.64;56.07
72468;SHT30;60626;43.582;1.470;2022-08-21T03:48:13;25.65;56.26
72468;SHT30;60626;43.582;1.470;2022-08-21T03:50:43;25.65;56.19
72468;SHT30;60626;43.582;1.470;2022-08-21T03:53:12;25.68;55.93
72468;SHT30;60626;43.582;1.470;2022-08-21T03:55:47;25.67;56.09
72468;SHT30;60626;43.582;1.470;2022-08-21T03:58:16;25.67;55.89
72468;SHT30;60626;43.582;1.470;2022-08-21T04:00:49;25.64;56.23
72468;SHT30;60626;43.582;1.470;2022-08-21T04:03:17;25.65;55.90
72468;SHT30;60626;43.582;1.470;2022-08-21T04:05:44;25.59;55.93
72468;SHT30;60626;43.582;1.470;2022-08-21T04:08:13;25.61;56.08
72468;SHT30;60626;43.582;1.470;2022-08-21T04:10:42;25.58;55.97
72468;SHT30;60626;43.582;1.470;2022-08-21T04:13:10;25.59;56.19
72468;SHT30;60626;43.582;1.470;2022-08-21T04:15:37;25.58;56.00
72468;SHT30;60626;43.582;1.470;2022-08-21T04:18:05;25.58;56.05
72468;SHT30;60626;43.582;1.470;2022-08-21T04:20:32;25.59;56.17
72468;SHT30;60626;43.582;1.470;2022-08-21T04:22:59;25.59;56.20
72468;SHT30;60626;43.582;1.470;2022-08-21T04:25:26;25.59;55.96
72468;SHT30;60626;43.582;1.470;2022-08-21T04:27:53;25.62;55.89
72468;SHT30;60626;43.582;1.470;2022-08-21T04:30:21;25.59;55.85
72468;SHT30;60626;43.582;1.470;2022-08-21T04:32:56;25.59;55.71
72468;SHT30;60626;43.582;1.470;2022-08-21T04:35:26;25.57;55.81
72468;SHT30;60626;43.582;1.470;2022-08-21T04:37:53;25.52;55.79
72468;SHT30;60626;43.582;1.470;2022-08-21T04:40:21;25.52;55.93
72468;SHT30;60626;43.582;1.470;2022-08-21T04:42:58;25.52;56.01
72468;SHT30;60626;43.582;1.470;2022-08-21T04:47:57;25.48;56.44
72468;SHT30;60626;43.582;1.470;2022-08-21T04:50:34;25.45;56.54
72468;SHT30;60626;43.582;1.470;2022-08-21T04:53:05;25.42;56.45
72468;SHT30;60626;43.582;1.470;2022-08-21T04:55:34;25.42;56.85
72468;SHT30;60626;43.582;1.470;2022-08-21T04:58:01;25.42;56.85
72468;SHT30;60626;43.582;1.470;2022-08-21T05:00:28;25.44;57.12
72468;SHT30;60626;43.582;1.470;2022-08-21T05:02:56;25.42;56.82
72468;SHT30;60626;43.582;1.470;2022-08-21T05:05:27;25.42;57.28
72468;SHT30;60626;43.582;1.470;2022-08-21T05:07:57;25.47;57.40
72468;SHT30;60626;43.582;1.470;2022-08-21T05:10:24;25.47;57.32
72468;SHT30;60626;43.582;1.470;2022-08-21T05:12:52;25.47;57.21
72468;SHT30;60626;43.582;1.470;2022-08-21T05:15:19;25.48;57.21
72468;SHT30;60626;43.582;1.470;2022-08-21T05:17:46;25.47;57.42
72468;SHT30;60626;43.582;1.470;2022-08-21T05:20:26;25.45;57.58
72468;SHT30;60626;43.582;1.470;2022-08-21T05:22:53;25.45;57.46
72468;SHT30;60626;43.582;1.470;2022-08-21T05:25:19;25.45;57.62
72468;SHT30;60626;43.582;1.470;2022-08-21T05:27:47;25.47;57.58
72468;SHT30;60626;43.582;1.470;2022-08-21T05:30:17;25.45;57.58
72468;SHT30;60626;43.582;1.470;2022-08-21T05:32:44;25.50;57.49
72468;SHT30;60626;43.582;1.470;2022-08-21T05:35:10;25.59;57.39
72468;SHT30;60626;43.582;1.470;2022-08-21T05:37:37;25.68;57.34
72468;SHT30;60626;43.582;1.470;2022-08-21T05:40:05;25.76;57.02
72468;SHT30;60626;43.582;1.470;2022-08-21T05:42:49;25.72;57.08
72468;SHT30;60626;43.582;1.470;2022-08-21T05:45:31;25.72;57.17
72468;SHT30;60626;43.582;1.470;2022-08-21T05:48:12;25.68;57.12
72468;SHT30;60626;43.582;1.470;2022-08-21T05:50:40;25.62;57.38
72468;SHT30;60626;43.582;1.470;2022-08-21T05:53:08;25.61;57.47
72468;SHT30;60626;43.582;1.470;2022-08-21T05:55:36;25.62;57.53
72468;SHT30;60626;43.582;1.470;2022-08-21T05:58:11;25.61;57.36
72468;SHT30;60626;43.582;1.470;2022-08-21T06:00:38;25.58;57.13
72468;SHT30;60626;43.582;1.470;2022-08-21T06:03:10;25.59;57.68
72468;SHT30;60626;43.582;1.470;2022-08-21T06:05:37;25.61;57.39
72468;SHT30;60626;43.582;1.470;2022-08-21T06:08:04;25.69;57.29
72468;SHT30;60626;43.582;1.470;2022-08-21T06:10:31;25.76;56.95
72468;SHT30;60626;43.582;1.470;2022-08-21T06:12:57;25.79;57.29
72468;SHT30;60626;43.582;1.470;2022-08-21T06:15:25;25.81;57.31
72468;SHT30;60626;43.582;1.470;2022-08-21T06:17:53;25.85;57.29
72468;SHT30;60626;43.582;1.470;2022-08-21T06:20:20;25.85;57.09
72468;SHT30;60626;43.582;1.470;2022-08-21T06:22:47;25.85;56.75
72468;SHT30;60626;43.582;1.470;2022-08-21T06:25:14;25.78;56.99
72468;SHT30;60626;43.582;1.470;2022-08-21T06:27:40;25.72;57.62
72468;SHT30;60626;43.582;1.470;2022-08-21T06:30:08;25.69;57.84
72468;SHT30;60626;43.582;1.470;2022-08-21T06:32:35;25.71;57.64
72468;SHT30;60626;43.582;1.470;2022-08-21T06:35:03;25.69;57.91
72468;SHT30;60626;43.582;1.470;2022-08-21T06:37:30;25.69;57.91
72468;SHT30;60626;43.582;1.470;2022-08-21T06:39:56;25.74;57.93
72468;SHT30;60626;43.582;1.470;2022-08-21T06:42:24;25.74;57.90
72468;SHT30;60626;43.582;1.470;2022-08-21T06:44:53;25.76;57.81
72468;SHT30;60626;43.582;1.470;2022-08-21T06:47:20;25.78;58.03
72468;SHT30;60626;43.582;1.470;2022-08-21T06:49:47;25.82;57.24
72468;SHT30;60626;43.582;1.470;2022-08-21T06:52:14;25.79;57.59
72468;SHT30;60626;43.582;1.470;2022-08-21T06:54:41;25.81;56.98
72468;SHT30;60626;43.582;1.470;2022-08-21T06:57:08;25.84;57.44
72468;SHT30;60626;43.582;1.470;2022-08-21T06:59:35;25.84;57.51
72468;SHT30;60626;43.582;1.470;2022-08-21T07:02:02;25.85;57.28
72468;SHT30;60626;43.582;1.470;2022-08-21T07:04:28;25.88;57.44
72468;SHT30;60626;43.582;1.470;2022-08-21T07:06:55;25.88;56.98
72468;SHT30;60626;43.582;1.470;2022-08-21T07:09:22;25.89;57.55
72468;SHT30;60626;43.582;1.470;2022-08-21T07:11:52;25.92;57.20
72468;SHT30;60626;43.582;1.470;2022-08-21T07:14:20;25.95;56.95
72468;SHT30;60626;43.582;1.470;2022-08-21T07:16:48;25.96;56.79
72468;SHT30;60626;43.582;1.470;2022-08-21T07:19:15;26.03;57.05
72468;SHT30;60626;43.582;1.470;2022-08-21T07:21:42;26.12;56.56
72468;SHT30;60626;43.582;1.470;2022-08-21T07:24:09;26.26;56.60
72468;SHT30;60626;43.582;1.470;2022-08-21T07:26:36;26.40;56.23
72468;SHT30;60626;43.582;1.470;2022-08-21T07:29:03;26.51;56.06
72468;SHT30;60626;43.582;1.470;2022-08-21T07:31:30;26.61;55.90
72468;SHT30;60626;43.582;1.470;2022-08-21T07:33:57;26.69;55.72
72468;SHT30;60626;43.582;1.470;2022-08-21T07:36:24;26.78;55.62
72468;SHT30;60626;43.582;1.470;2022-08-21T07:38:51;26.87;55.23
72468;SHT30;60626;43.582;1.470;2022-08-21T07:41:22;26.92;55.00
72468;SHT30;60626;43.582;1.470;2022-08-21T07:43:49;26.95;55.04
72468;SHT30;60626;43.582;1.470;2022-08-21T07:46:18;26.92;54.75
72468;SHT30;60626;43.582;1.470;2022-08-21T07:48:46;26.91;54.76
72468;SHT30;60626;43.582;1.470;2022-08-21T07:51:14;26.96;54.82
72468;SHT30;60626;43.582;1.470;2022-08-21T07:53:41;27.00;54.52
72468;SHT30;60626;43.582;1.470;2022-08-21T07:56:08;27.00;54.58
72468;SHT30;60626;43.582;1.470;2022-08-21T07:58:35;27.09;54.57
72468;SHT30;60626;43.582;1.470;2022-08-21T08:01:02;27.17;54.42
72468;SHT30;60626;43.582;1.470;2022-08-21T08:03:28;27.26;54.13
72468;SHT30;60626;43.582;1.470;2022-08-21T08:05:56;27.32;53.97
72468;SHT30;60626;43.582;1.470;2022-08-21T08:08:24;27.32;54.00
72468;SHT30;60626;43.582;1.470;2022-08-21T08:10:53;27.29;53.76
72468;SHT30;60626;43.582;1.470;2022-08-21T08:13:20;27.30;53.82
72468;SHT30;60626;43.582;1.470;2022-08-21T08:15:46;27.37;53.84
72468;SHT30;60626;43.582;1.470;2022-08-21T08:18:13;27.51;53.54
72468;SHT30;60626;43.582;1.470;2022-08-21T08:20:40;27.58;53.59
72468;SHT30;60626;43.582;1.470;2022-08-21T08:23:10;27.57;53.18
72468;SHT30;60626;43.582;1.470;2022-08-21T08:25:37;27.67;53.36
72468;SHT30;60626;43.582;1.470;2022-08-21T08:28:05;27.70;53.18
72468;SHT30;60626;43.582;1.470;2022-08-21T08:30:43;27.64;52.85
72468;SHT30;60626;43.582;1.470;2022-08-21T08:33:10;27.62;53.08
72468;SHT30;60626;43.582;1.470;2022-08-21T08:35:36;27.62;53.10
72468;SHT30;60626;43.582;1.470;2022-08-21T08:38:04;27.68;53.06
72468;SHT30;60626;43.582;1.470;2022-08-21T08:40:41;27.76;52.89
72468;SHT30;60626;43.582;1.470;2022-08-21T08:43:12;27.80;52.69
72468;SHT30;60626;43.582;1.470;2022-08-21T08:45:43;27.92;52.48
72468;SHT30;60626;43.582;1.470;2022-08-21T08:48:15;28.06;52.56
72468;SHT30;60626;43.582;1.470;2022-08-21T08:50:52;28.19;52.49
72468;SHT30;60626;43.582;1.470;2022-08-21T08:53:33;28.29;51.48
72468;SHT30;60626;43.582;1.470;2022-08-21T08:56:01;28.40;51.34
72468;SHT30;60626;43.582;1.470;2022-08-21T08:58:36;28.49;50.70
72468;SHT30;60626;43.582;1.470;2022-08-21T09:01:06;28.49;50.01
72468;SHT30;60626;43.582;1.470;2022-08-21T09:03:38;28.49;50.20
72468;SHT30;60626;43.582;1.470;2022-08-21T09:06:23;28.49;50.27
72468;SHT30;60626;43.582;1.470;2022-08-21T09:09:06;28.53;50.09
72468;SHT30;60626;43.582;1.470;2022-08-21T09:14:38;28.73;49.82
72468;SHT30;60626;43.582;1.470;2022-08-21T09:22:39;28.84;49.98
72468;SHT30;60626;43.582;1.470;2022-08-21T09:25:26;28.81;49.38
72468;SHT30;60626;43.582;1.470;2022-08-21T09:27:54;28.75;48.91
72468;SHT30;60626;43.582;1.470;2022-08-21T09:30:26;28.77;49.58
72468;SHT30;60626;43.582;1.470;2022-08-21T09:32:54;28.82;48.49
72468;SHT30;60626;43.582;1.470;2022-08-21T09:35:22;28.90;48.98
72468;SHT30;60626;43.582;1.470;2022-08-21T09:38:03;28.97;48.73
72468;SHT30;60626;43.582;1.470;2022-08-21T09:43:05;29.14;48.84
72468;SHT30;60626;43.582;1.470;2022-08-21T09:45:35;29.16;48.04
72468;SHT30;60626;43.582;1.470;2022-08-21T09:48:23;29.16;47.19
72468;SHT30;60626;43.582;1.470;2022-08-21T09:51:11;29.18;47.67
72468;SHT30;60626;43.582;1.470;2022-08-21T09:53:42;29.22;47.67
72468;SHT30;60626;43.582;1.470;2022-08-21T09:59:29;29.33;46.46
72468;SHT30;60626;43.582;1.470;2022-08-21T10:02:29;29.43;46.60
72468;SHT30;60626;43.582;1.470;2022-08-21T10:05:21;29.45;46.99
72468;SHT30;60626;43.582;1.470;2022-08-21T10:07:49;29.43;45.90
72468;SHT30;60626;43.582;1.470;2022-08-21T10:10:23;29.47;46.53
72468;SHT30;60626;43.582;1.470;2022-08-21T10:21:17;29.63;46.09
72468;SHT30;60626;43.582;1.470;2022-08-21T10:24:37;29.69;45.87
72468;SHT30;60626;43.582;1.470;2022-08-21T10:30:06;29.80;45.64
72468;SHT30;60626;43.582;1.470;2022-08-21T10:46:54;29.94;45.85
72468;SHT30;60626;43.582;1.470;2022-08-21T10:54:52;30.08;45.01
72468;SHT30;60626;43.582;1.470;2022-08-21T10:57:29;30.12;44.94
72468;SHT30;60626;43.582;1.470;2022-08-21T11:00:30;30.15;45.16
72468;SHT30;60626;43.582;1.470;2022-08-21T11:05:35;30.25;43.80
72468;SHT30;60626;43.582;1.470;2022-08-21T11:08:15;30.32;43.29
72468;SHT30;60626;43.582;1.470;2022-08-21T11:11:01;30.33;43.09
72468;SHT30;60626;43.582;1.470;2022-08-21T11:14:04;30.40;43.54
72468;SHT30;60626;43.582;1.470;2022-08-21T11:16:53;30.42;43.45
72468;SHT30;60626;43.582;1.470;2022-08-21T11:19:38;30.40;43.59
72468;SHT30;60626;43.582;1.470;2022-08-21T11:22:38;30.40;43.25
72468;SHT30;60626;43.582;1.470;2022-08-21T11:25:42;30.33;44.46
72468;SHT30;60626;43.582;1.470;2022-08-21T11:28:28;30.28;44.33
72468;SHT30;60626;43.582;1.470;2022-08-21T11:36:11;30.33;43.10
72468;SHT30;60626;43.582;1.470;2022-08-21T11:38:55;30.33;43.38
72468;SHT30;60626;43.582;1.470;2022-08-21T11:41:38;30.33;43.26
72468;SHT30;60626;43.582;1.470;2022-08-21T11:52:26;30.24;42.50
72468;SHT30;60626;43.582;1.470;2022-08-21T11:58:02;30.31;42.71
72468;SHT30;60626;43.582;1.470;2022-08-21T12:00:35;30.35;43.33
72468;SHT30;60626;43.582;1.470;2022-08-21T12:03:31;30.31;42.91
72468;SHT30;60626;43.582;1.470;2022-08-21T12:06:10;30.21;42.21
72468;SHT30;60626;43.582;1.470;2022-08-21T12:08:45;30.15;42.19
72468;SHT30;60626;43.582;1.470;2022-08-21T12:11:25;30.12;42.17
72468;SHT30;60626;43.582;1.470;2022-08-21T12:14:00;30.11;42.30
72468;SHT30;60626;43.582;1.470;2022-08-21T12:16:42;30.17;42.35
72468;SHT30;60626;43.582;1.470;2022-08-21T12:19:20;30.17;42.74
72468;SHT30;60626;43.582;1.470;2022-08-21T12:24:48;30.18;42.52
72468;SHT30;60626;43.582;1.470;2022-08-21T12:27:23;30.18;42.52
72468;SHT30;60626;43.582;1.470;2022-08-21T12:29:56;30.18;42.52
72468;SHT30;60626;43.582;1.470;2022-08-21T12:32:30;30.18;42.74
72468;SHT30;60626;43.582;1.470;2022-08-21T12:35:17;30.18;42.38
72468;SHT30;60626;43.582;1.470;2022-08-21T12:38:02;30.19;42.97
72468;SHT30;60626;43.582;1.470;2022-08-21T12:41:01;30.17;42.90
72468;SHT30;60626;43.582;1.470;2022-08-21T12:46:22;30.12;43.00
72468;SHT30;60626;43.582;1.470;2022-08-21T12:48:56;30.12;42.96
72468;SHT30;60626;43.582;1.470;2022-08-21T12:51:28;30.15;42.78
72468;SHT30;60626;43.582;1.470;2022-08-21T12:53:58;30.12;42.88
72468;SHT30;60626;43.582;1.470;2022-08-21T12:56:30;30.12;42.71
72468;SHT30;60626;43.582;1.470;2022-08-21T12:59:02;30.15;42.41
72468;SHT30;60626;43.582;1.470;2022-08-21T13:01:38;30.17;42.73
72468;SHT30;60626;43.582;1.470;2022-08-21T13:04:13;30.15;42.72
72468;SHT30;60626;43.582;1.470;2022-08-21T13:06:45;30.17;42.65
72468;SHT30;60626;43.582;1.470;2022-08-21T13:09:18;30.15;42.71
72468;SHT30;60626;43.582;1.470;2022-08-21T13:11:47;30.12;42.71
72468;SHT30;60626;43.582;1.470;2022-08-21T13:14:36;30.08;42.83
72468;SHT30;60626;43.582;1.470;2022-08-21T13:17:14;30.12;42.57
72468;SHT30;60626;43.582;1.470;2022-08-21T13:20:22;30.15;42.98
72468;SHT30;60626;43.582;1.470;2022-08-21T13:22:50;30.14;42.91
72468;SHT30;60626;43.582;1.470;2022-08-21T13:25:19;30.19;42.45
72468;SHT30;60626;43.582;1.470;2022-08-21T13:27:59;30.18;42.34
72468;SHT30;60626;43.582;1.470;2022-08-21T13:30:26;30.22;42.51
72468;SHT30;60626;43.582;1.470;2022-08-21T13:33:02;30.24;43.08
72468;SHT30;60626;43.582;1.470;2022-08-21T13:35:51;30.21;42.47
72468;SHT30;60626;43.582;1.470;2022-08-21T13:38:25;30.21;42.03
72468;SHT30;60626;43.582;1.470;2022-08-21T13:41:05;30.15;42.22
72468;SHT30;60626;43.582;1.470;2022-08-21T13:43:36;30.12;42.16
72468;SHT30;60626;43.582;1.470;2022-08-21T13:46:10;30.11;42.68
72468;SHT30;60626;43.582;1.470;2022-08-21T13:48:38;30.08;42.56
72468;SHT30;60626;43.582;1.470;2022-08-21T13:51:05;30.08;42.37
72468;SHT30;60626;43.582;1.470;2022-08-21T13:56:07;30.04;42.66
72468;SHT30;60626;43.582;1.470;2022-08-21T13:58:44;30.05;42.38
72468;SHT30;60626;43.582;1.470;2022-08-21T14:01:31;30.04;42.32
72468;SHT30;60626;43.582;1.470;2022-08-21T14:04:25;30.02;42.42
72468;SHT30;60626;43.582;1.470;2022-08-21T14:06:49;30.07;42.68
72468;SHT30;60626;43.582;1.470;2022-08-21T14:09:43;30.08;42.50
72468;SHT30;60626;43.582;1.470;2022-08-21T14:12:24;30.05;42.78
72468;SHT30;60626;43.582;1.470;2022-08-21T14:14:54;30.05;42.50
72468;SHT30;60626;43.582;1.470;2022-08-21T14:17:33;30.07;42.55
72468;SHT30;60626;43.582;1.470;2022-08-21T14:20:05;30.11;42.47
72468;SHT30;60626;43.582;1.470;2022-08-21T14:22:41;30.12;42.72
72468;SHT30;60626;43.582;1.470;2022-08-21T14:27:53;30.17;42.45
72468;SHT30;60626;43.582;1.470;2022-08-21T14:30:26;30.17;42.52
72468;SHT30;60626;43.582;1.470;2022-08-21T14:32:54;30.19;42.60
72468;SHT30;60626;43.582;1.470;2022-08-21T14:35:21;30.21;42.57
72468;SHT30;60626;43.582;1.470;2022-08-21T14:37:50;30.24;42.43
72468;SHT30;60626;43.582;1.470;2022-08-21T14:40:19;30.24;42.42
72468;SHT30;60626;43.582;1.470;2022-08-21T14:42:46;30.22;42.33
72468;SHT30;60626;43.582;1.470;2022-08-21T14:45:17;30.22;42.98
72468;SHT30;60626;43.582;1.470;2022-08-21T14:47:52;30.24;42.83
72468;SHT30;60626;43.582;1.470;2022-08-21T14:50:19;30.18;43.01
72468;SHT30;60626;43.582;1.470;2022-08-21T14:52:46;30.17;42.71
72468;SHT30;60626;43.582;1.470;2022-08-21T14:55:16;30.15;42.97
72468;SHT30;60626;43.582;1.470;2022-08-21T14:57:47;30.14;42.63
72468;SHT30;60626;43.582;1.470;2022-08-21T15:00:17;30.07;42.68
72468;SHT30;60626;43.582;1.470;2022-08-21T15:02:44;30.02;42.69
72468;SHT30;60626;43.582;1.470;2022-08-21T15:05:12;30.00;42.96
72468;SHT30;60626;43.582;1.470;2022-08-21T15:07:41;29.97;42.94
72468;SHT30;60626;43.582;1.470;2022-08-21T15:10:08;29.94;42.97
72468;SHT30;60626;43.582;1.470;2022-08-21T15:12:35;30.00;43.71
72468;SHT30;60626;43.582;1.470;2022-08-21T15:15:07;30.00;43.36
72468;SHT30;60626;43.582;1.470;2022-08-21T15:17:34;30.00;42.90
72468;SHT30;60626;43.582;1.470;2022-08-21T15:20:02;29.93;43.11
72468;SHT30;60626;43.582;1.470;2022-08-21T15:22:29;29.90;43.06
72468;SHT30;60626;43.582;1.470;2022-08-21T15:24:56;29.77;42.85
72468;SHT30;60626;43.582;1.470;2022-08-21T15:27:22;29.67;42.88
72468;SHT30;60626;43.582;1.470;2022-08-21T15:29:49;29.62;43.02
72468;SHT30;60626;43.582;1.470;2022-08-21T15:32:24;29.57;43.25
72468;SHT30;60626;43.582;1.470;2022-08-21T15:34:53;29.52;43.34
72468;SHT30;60626;43.582;1.470;2022-08-21T15:37:21;29.49;43.41
72468;SHT30;60626;43.582;1.470;2022-08-21T15:39:49;29.50;43.54
72468;SHT30;60626;43.582;1.470;2022-08-21T15:42:20;29.46;43.58
72468;SHT30;60626;43.582;1.470;2022-08-21T15:44:47;29.49;43.61
72468;SHT30;60626;43.582;1.470;2022-08-21T15:47:18;29.53;43.72
72468;SHT30;60626;43.582;1.470;2022-08-21T15:49:45;29.53;43.63
72468;SHT30;60626;43.582;1.470;2022-08-21T15:52:18;29.56;43.87
72468;SHT30;60626;43.582;1.470;2022-08-21T15:54:45;29.62;43.66
72468;SHT30;60626;43.582;1.470;2022-08-21T15:57:15;29.69;43.73
72468;SHT30;60626;43.582;1.470;2022-08-21T15:59:46;29.67;43.59
72468;SHT30;60626;43.582;1.470;2022-08-21T16:02:19;29.69;43.56
72468;SHT30;60626;43.582;1.470;2022-08-21T16:04:47;29.69;43.67
72468;SHT30;60626;43.582;1.470;2022-08-21T16:07:14;29.66;43.89
72468;SHT30;60626;43.582;1.470;2022-08-21T16:09:41;29.67;43.87
72468;SHT30;60626;43.582;1.470;2022-08-21T16:12:12;29.67;43.82
72468;SHT30;60626;43.582;1.470;2022-08-21T16:14:40;29.66;43.97
72468;SHT30;60626;43.582;1.470;2022-08-21T16:17:07;29.67;43.92
72468;SHT30;60626;43.582;1.470;2022-08-21T16:19:36;29.62;43.68
72468;SHT30;60626;43.582;1.470;2022-08-21T16:22:09;29.59;43.92
72468;SHT30;60626;43.582;1.470;2022-08-21T16:24:36;29.59;43.88
72468;SHT30;60626;43.582;1.470;2022-08-21T16:27:05;29.57;43.92
72468;SHT30;60626;43.582;1.470;2022-08-21T16:29:35;29.55;44.03
72468;SHT30;60626;43.582;1.470;2022-08-21T16:32:03;29.52;44.04
72468;SHT30;60626;43.582;1.470;2022-08-21T16:34:31;29.50;44.07
72468;SHT30;60626;43.582;1.470;2022-08-21T16:36:59;29.52;44.31
72468;SHT30;60626;43.582;1.470;2022-08-21T16:39:26;29.52;44.24
72468;SHT30;60626;43.582;1.470;2022-08-21T16:41:53;29.52;44.27
72468;SHT30;60626;43.582;1.470;2022-08-21T16:44:21;29.53;44.29
72468;SHT30;60626;43.582;1.470;2022-08-21T16:46:48;29.46;44.23
72468;SHT30;60626;43.582;1.470;2022-08-21T16:49:15;29.46;44.51
72468;SHT30;60626;43.582;1.470;2022-08-21T16:51:42;29.45;44.50
72468;SHT30;60626;43.582;1.470;2022-08-21T16:54:10;29.47;44.41
72468;SHT30;60626;43.582;1.470;2022-08-21T16:56:38;29.49;44.45
72468;SHT30;60626;43.582;1.470;2022-08-21T16:59:10;29.49;44.52
72468;SHT30;60626;43.582;1.470;2022-08-21T17:01:38;29.49;44.39
72468;SHT30;60626;43.582;1.470;2022-08-21T17:04:05;29.52;44.47
72468;SHT30;60626;43.582;1.470;2022-08-21T17:06:32;29.46;44.44
72468;SHT30;60626;43.582;1.470;2022-08-21T17:08:59;29.47;44.55
72468;SHT30;60626;43.582;1.470;2022-08-21T17:14:10;29.47;44.55
72468;SHT30;60626;43.582;1.470;2022-08-21T17:16:39;29.47;44.65
72468;SHT30;60626;43.582;1.470;2022-08-21T17:19:06;29.46;44.61